createdAt,value
2022-07-31T00:01:31.990Z,92.89
2022-07-31T00:04:11.366Z,92.95
2022-07-31T00:07:12.920Z,92.97
2022-07-31T00:10:10.049Z,92.94
2022-07-31T00:12:56.841Z,93.08
2022-07-31T00:16:25.420Z,93.07
2022-07-31T00:19:33.861Z,93.09
2022-07-31T00:26:34.558Z,93.06
2022-07-31T00:29:51.672Z,92.93
2022-07-31T00:32:44.197Z,92.99
2022-07-31T00:35:26.244Z,92.86
2022-07-31T00:38:27.451Z,92.79
2022-07-31T00:41:36.137Z,92.54
2022-07-31T00:44:28.299Z,92.89
2022-07-31T00:47:11.640Z,92.89
2022-07-31T00:50:06.886Z,92.97
2022-07-31T00:52:38.893Z,93.11
2022-07-31T00:55:27.653Z,92.83
2022-07-31T00:58:03.888Z,92.85
2022-07-31T01:01:01.108Z,92.77
2022-07-31T01:03:37.827Z,93.15
2022-07-31T01:06:23.420Z,93.14
2022-07-31T01:09:07.158Z,92.98
2022-07-31T01:12:36.938Z,93.17
2022-07-31T01:15:28.841Z,93.44
2022-07-31T01:18:16.474Z,93.53
2022-07-31T01:21:33.761Z,93.47
2022-07-31T01:24:44.791Z,93.47
2022-07-31T01:28:03.437Z,93.44
2022-07-31T01:31:26.637Z,93.47
2022-07-31T01:34:49.546Z,93.43
2022-07-31T01:38:42.500Z,93.54
2022-07-31T01:42:06.981Z,93.48
2022-07-31T01:45:35.823Z,93.27
2022-07-31T01:48:48.123Z,93.38
2022-07-31T01:52:02.854Z,93.29
2022-07-31T01:55:03.130Z,93.38
2022-07-31T01:58:15.395Z,93.29
2022-07-31T02:01:36.757Z,93.35
2022-07-31T02:04:53.113Z,93.33
2022-07-31T02:08:21.810Z,93.41
2022-07-31T02:11:55.063Z,93.40
2022-07-31T02:15:20.541Z,93.48
2022-07-31T02:18:41.673Z,93.51
2022-07-31T02:21:55.555Z,93.40
2022-07-31T02:25:24.340Z,92.99
2022-07-31T02:28:42.748Z,93.16
2022-07-31T02:36:14.074Z,93.42
2022-07-31T02:39:42.496Z,93.41
2022-07-31T02:43:10.923Z,93.45
2022-07-31T02:46:39.568Z,93.56
2022-07-31T02:50:09.253Z,93.83
2022-07-31T02:53:42.564Z,93.80
2022-07-31T02:57:12.219Z,93.89
2022-07-31T03:00:41.554Z,93.91
2022-07-31T03:15:01.961Z,93.76
2022-07-31T03:18:33.500Z,94.18
2022-07-31T03:22:02.513Z,94.15
2022-07-31T03:25:20.240Z,94.08
2022-07-31T03:28:50.642Z,94.18
2022-07-31T03:32:19.437Z,94.23
2022-07-31T03:35:48.300Z,94.25
2022-07-31T03:39:10.028Z,94.06
2022-07-31T03:42:38.344Z,94.16
2022-07-31T03:50:06.251Z,94.53
2022-07-31T03:53:34.696Z,94.79
2022-07-31T03:57:03.364Z,94.86
2022-07-31T04:00:30.933Z,94.90
2022-07-31T04:03:54.052Z,94.88
2022-07-31T04:07:22.608Z,94.88
2022-07-31T04:10:51.427Z,94.82
2022-07-31T04:14:10.040Z,94.86
2022-07-31T04:17:20.966Z,94.80
2022-07-31T04:24:39.076Z,94.63
2022-07-31T04:28:08.489Z,94.59
2022-07-31T04:31:37.110Z,94.68
2022-07-31T04:35:05.673Z,94.58
2022-07-31T04:38:34.260Z,94.60
2022-07-31T04:42:02.902Z,94.51
2022-07-31T04:45:31.609Z,94.54
2022-07-31T04:49:00.797Z,94.51
2022-07-31T04:52:29.582Z,94.55
2022-07-31T04:55:50.658Z,94.62
2022-07-31T04:59:20.820Z,94.72
2022-07-31T05:47:43.007Z,94.27
2022-07-31T05:51:11.593Z,94.43
2022-07-31T05:54:40.034Z,94.32
2022-07-31T05:58:10.026Z,94.20
2022-07-31T06:01:41.422Z,94.31
2022-07-31T06:05:09.961Z,94.36
2022-07-31T06:08:37.586Z,94.41
2022-07-31T06:12:06.246Z,94.40
2022-07-31T06:15:36.798Z,94.21
2022-07-31T06:18:48.102Z,94.27
2022-07-31T06:22:16.721Z,94.41
2022-07-31T06:25:46.396Z,94.37
2022-07-31T06:33:08.481Z,94.36
2022-07-31T06:36:38.315Z,94.19
2022-07-31T06:40:06.811Z,94.13
2022-07-31T06:43:37.131Z,94.19
2022-07-31T07:05:04.425Z,93.93
2022-07-31T07:08:30.488Z,94.16
2022-07-31T07:11:51.850Z,94.15
2022-07-31T07:15:23.479Z,94.24
2022-07-31T07:18:52.472Z,94.36
2022-07-31T07:22:31.787Z,94.34
2022-07-31T07:36:24.713Z,94.54
2022-07-31T07:39:53.447Z,94.48
2022-07-31T07:43:22.001Z,94.37
2022-07-31T07:46:51.700Z,94.45
2022-07-31T07:50:21.976Z,94.46
2022-07-31T08:24:33.999Z,95.04
2022-07-31T08:28:11.157Z,94.92
2022-07-31T08:31:37.191Z,94.89
2022-07-31T08:35:10.346Z,94.94
2022-07-31T08:42:26.014Z,95.15
2022-07-31T08:45:54.464Z,95.42
2022-07-31T08:49:23.178Z,95.41
2022-07-31T08:52:45.171Z,95.39
2022-07-31T08:56:13.825Z,95.44
2022-07-31T08:59:42.404Z,95.53
2022-07-31T09:03:11.287Z,95.42
2022-07-31T09:06:40.298Z,95.42
2022-07-31T09:10:10.235Z,95.29
2022-07-31T09:17:30.135Z,95.44
2022-07-31T09:21:02.116Z,95.49
2022-07-31T09:24:31.132Z,95.25
2022-07-31T09:28:05.517Z,95.12
2022-07-31T09:31:36.537Z,95.20
2022-07-31T09:35:08.768Z,95.00
2022-07-31T10:17:27.340Z,94.94
2022-07-31T10:20:49.527Z,95.17
2022-07-31T10:24:18.233Z,95.08
2022-07-31T10:27:46.836Z,95.21
2022-07-31T10:31:15.415Z,95.24
2022-07-31T10:34:44.322Z,95.23
2022-07-31T10:38:12.832Z,95.12
2022-07-31T10:41:44.903Z,94.97
2022-07-31T11:14:04.358Z,94.76
2022-07-31T11:18:23.521Z,94.91
2022-07-31T11:21:37.983Z,94.64
2022-07-31T11:25:17.131Z,94.67
2022-07-31T11:28:51.574Z,94.54
2022-07-31T11:32:25.169Z,94.57
2022-07-31T11:35:54.751Z,94.64
2022-07-31T11:39:36.852Z,94.67
2022-07-31T11:43:35.937Z,94.64
2022-07-31T11:46:54.791Z,94.68
2022-07-31T11:54:03.702Z,94.42
2022-07-31T11:57:51.541Z,94.50
2022-07-31T12:01:21.923Z,94.70
2022-07-31T12:04:50.479Z,94.67
2022-07-31T12:08:19.188Z,94.71
2022-07-31T12:11:47.704Z,94.67
2022-07-31T12:15:19.322Z,94.60
2022-07-31T12:18:49.233Z,94.63
2022-07-31T13:28:25.168Z,94.98
2022-07-31T13:31:53.625Z,95.04
2022-07-31T13:35:27.612Z,95.03
2022-07-31T13:38:40.156Z,94.93
2022-07-31T13:42:08.863Z,94.96
2022-07-31T13:45:30.604Z,95.07
2022-07-31T13:48:58.206Z,95.15
2022-07-31T13:52:27.148Z,95.15
2022-07-31T13:55:55.765Z,95.07
2022-07-31T13:59:24.351Z,95.05
2022-07-31T14:02:53.157Z,95.02
2022-07-31T14:06:21.989Z,95.16
2022-07-31T14:09:55.112Z,95.19
2022-07-31T14:13:24.231Z,95.12
2022-07-31T14:16:54.086Z,95.14
2022-07-31T14:20:23.823Z,95.09
2022-07-31T14:23:53.161Z,95.12
2022-07-31T15:32:44.918Z,95.12
2022-07-31T15:36:06.140Z,95.05
2022-07-31T15:39:34.738Z,95.01
2022-07-31T15:42:55.748Z,94.92
2022-07-31T15:46:24.773Z,95.03
2022-07-31T15:49:52.505Z,94.95
2022-07-31T15:53:20.935Z,94.99
2022-07-31T15:56:49.399Z,94.93
2022-07-31T16:00:17.936Z,94.90
2022-07-31T16:03:53.088Z,94.95
2022-07-31T16:41:54.663Z,95.42
2022-07-31T16:45:24.999Z,95.28
2022-07-31T16:48:53.508Z,95.34
2022-07-31T16:52:22.125Z,95.37
2022-07-31T16:56:00.302Z,95.34
2022-07-31T16:59:27.368Z,95.31
2022-07-31T17:02:55.775Z,95.39
2022-07-31T17:06:34.647Z,95.40
2022-07-31T17:09:24.579Z,95.56
2022-07-31T17:12:44.766Z,95.56
2022-07-31T17:15:54.888Z,95.51
2022-07-31T17:18:44.523Z,95.60
2022-07-31T17:22:21.499Z,95.68
2022-07-31T17:25:36.619Z,95.69
2022-07-31T17:28:45.797Z,95.61
2022-07-31T17:32:07.133Z,95.57
2022-07-31T17:35:25.235Z,95.64
2022-07-31T17:38:14.925Z,95.69
2022-07-31T17:41:03.601Z,95.59
2022-07-31T17:44:33.715Z,95.60
2022-07-31T17:48:02.882Z,95.60
2022-07-31T18:19:20.347Z,94.92
2022-07-31T18:22:49.694Z,94.82
2022-07-31T18:26:18.677Z,94.82
2022-07-31T18:29:17.326Z,94.87
2022-07-31T18:32:46.099Z,94.85
2022-07-31T18:36:14.637Z,94.88
2022-07-31T18:39:34.168Z,94.87
2022-07-31T18:43:00.381Z,94.95
2022-07-31T18:51:00.414Z,95.09
2022-07-31T18:54:01.333Z,95.19
2022-07-31T18:57:30.062Z,95.19
2022-07-31T19:00:58.748Z,95.19
2022-07-31T19:04:27.565Z,95.24
2022-07-31T19:42:11.563Z,95.19
2022-07-31T19:46:09.448Z,95.20
2022-07-31T19:49:28.664Z,95.23
2022-07-31T19:52:57.292Z,95.22
2022-07-31T19:59:52.385Z,95.20
2022-07-31T20:02:57.072Z,95.18
2022-07-31T20:06:28.865Z,95.07
2022-07-31T20:09:59.576Z,94.98
2022-07-31T20:30:01.049Z,94.96
2022-07-31T20:33:19.357Z,94.97
2022-07-31T20:50:32.051Z,94.91
2022-07-31T20:57:09.791Z,94.93
2022-07-31T21:00:39.664Z,94.93
2022-07-31T21:04:09.943Z,94.90
2022-07-31T21:17:59.022Z,94.74
2022-07-31T21:21:28.762Z,94.74
2022-07-31T22:22:38.712Z,94.82
2022-07-31T22:26:06.458Z,94.80
2022-07-31T22:29:34.967Z,94.80
2022-07-31T22:32:53.940Z,94.82
2022-07-31T22:36:29.379Z,94.87
2022-07-31T23:20:42.609Z,94.77
2022-07-31T23:24:11.466Z,94.75
2022-07-31T23:27:23.633Z,94.75
2022-07-31T23:30:41.781Z,94.74
2022-07-31T23:34:03.310Z,94.76
2022-07-31T23:37:31.921Z,94.76
2022-07-31T23:41:07.004Z,94.70
